Terminal Aerodrome Forecast
Issued by NWS

Home | Current Version | Previous Version | Text Only | Print | Product List | Glossary On
Versions: 1 2 3 4 5 6 7 8 9 10 11 12 13 14 15 16
427
FTUS43 KDVN 211730
TAFBRL
TAF
KBRL 211730Z 2118/2218 17006KT P6SM SCT005 BKN015
     FM212100 26006KT P6SM BKN025
     FM220600 36004KT 4SM BR BKN010
     FM221500 31005KT 6SM BR OVC025=

USA.gov is the U.S. government's official web portal to all federal, state and local government web resources and services.